sensor_id;sensor_type;location;lat;lon;timestamp;P1;durP1;ratioP1;P2;durP2;ratioP2
59649;SDS011;46162;57.568;25.814;2023-09-12T00:01:29;32.72;;;24.45;;
59649;SDS011;46162;57.568;25.814;2023-09-12T00:03:59;37.70;;;25.05;;
59649;SDS011;46162;57.568;25.814;2023-09-12T00:06:28;33.45;;;25.85;;
59649;SDS011;46162;57.568;25.814;2023-09-12T00:08:58;34.35;;;26.08;;
59649;SDS011;46162;57.568;25.814;2023-09-12T00:11:27;35.53;;;27.00;;
59649;SDS011;46162;57.568;25.814;2023-09-12T00:13:55;40.40;;;26.75;;
59649;SDS011;46162;57.568;25.814;2023-09-12T00:16:24;36.20;;;26.52;;
59649;SDS011;46162;57.568;25.814;2023-09-12T00:18:53;40.78;;;28.15;;
59649;SDS011;46162;57.568;25.814;2023-09-12T00:21:22;32.53;;;26.63;;
59649;SDS011;46162;57.568;25.814;2023-09-12T00:23:50;34.30;;;26.15;;
59649;SDS011;46162;57.568;25.814;2023-09-12T00:26:20;32.35;;;25.00;;
59649;SDS011;46162;57.568;25.814;2023-09-12T00:28:50;36.55;;;25.23;;
59649;SDS011;46162;57.568;25.814;2023-09-12T00:31:19;28.83;;;24.05;;
59649;SDS011;46162;57.568;25.814;2023-09-12T00:33:48;36.10;;;24.67;;
59649;SDS011;46162;57.568;25.814;2023-09-12T00:36:17;37.00;;;24.60;;
59649;SDS011;46162;57.568;25.814;2023-09-12T00:38:45;36.30;;;26.98;;
59649;SDS011;46162;57.568;25.814;2023-09-12T00:41:14;43.58;;;26.50;;
59649;SDS011;46162;57.568;25.814;2023-09-12T00:43:44;36.47;;;25.63;;
59649;SDS011;46162;57.568;25.814;2023-09-12T00:46:13;34.47;;;25.43;;
59649;SDS011;46162;57.568;25.814;2023-09-12T00:48:47;29.85;;;25.02;;
59649;SDS011;46162;57.568;25.814;2023-09-12T00:51:17;32.92;;;23.77;;
59649;SDS011;46162;57.568;25.814;2023-09-12T00:53:48;28.70;;;23.10;;
59649;SDS011;46162;57.568;25.814;2023-09-12T00:56:17;32.97;;;23.63;;
59649;SDS011;46162;57.568;25.814;2023-09-12T00:58:47;29.85;;;21.92;;
59649;SDS011;46162;57.568;25.814;2023-09-12T01:01:18;31.08;;;24.58;;
59649;SDS011;46162;57.568;25.814;2023-09-12T01:03:47;34.20;;;25.00;;
59649;SDS011;46162;57.568;25.814;2023-09-12T01:06:17;28.42;;;23.92;;
59649;SDS011;46162;57.568;25.814;2023-09-12T01:08:49;36.83;;;26.17;;
59649;SDS011;46162;57.568;25.814;2023-09-12T01:11:17;30.48;;;23.88;;
59649;SDS011;46162;57.568;25.814;2023-09-12T01:13:46;37.08;;;25.08;;
59649;SDS011;46162;57.568;25.814;2023-09-12T01:16:16;24.58;;;21.23;;
59649;SDS011;46162;57.568;25.814;2023-09-12T01:18:45;33.80;;;22.17;;
59649;SDS011;46162;57.568;25.814;2023-09-12T01:21:24;26.40;;;20.50;;
59649;SDS011;46162;57.568;25.814;2023-09-12T01:24:12;24.92;;;19.02;;
59649;SDS011;46162;57.568;25.814;2023-09-12T01:27:19;32.72;;;19.48;;
59649;SDS011;46162;57.568;25.814;2023-09-12T01:29:51;23.70;;;19.70;;
59649;SDS011;46162;57.568;25.814;2023-09-12T01:32:24;26.35;;;20.63;;
59649;SDS011;46162;57.568;25.814;2023-09-12T01:34:53;26.23;;;21.25;;
59649;SDS011;46162;57.568;25.814;2023-09-12T01:37:22;26.48;;;21.20;;
59649;SDS011;46162;57.568;25.814;2023-09-12T01:39:51;25.88;;;22.52;;
59649;SDS011;46162;57.568;25.814;2023-09-12T01:42:21;26.30;;;22.23;;
59649;SDS011;46162;57.568;25.814;2023-09-12T01:44:54;28.50;;;22.67;;
59649;SDS011;46162;57.568;25.814;2023-09-12T01:47:24;29.15;;;24.08;;
59649;SDS011;46162;57.568;25.814;2023-09-12T01:49:55;33.65;;;24.13;;
59649;SDS011;46162;57.568;25.814;2023-09-12T01:52:25;28.95;;;22.90;;
59649;SDS011;46162;57.568;25.814;2023-09-12T01:54:55;30.35;;;23.30;;
59649;SDS011;46162;57.568;25.814;2023-09-12T01:57:26;30.83;;;21.38;;
59649;SDS011;46162;57.568;25.814;2023-09-12T01:59:55;30.42;;;23.27;;
59649;SDS011;46162;57.568;25.814;2023-09-12T02:02:23;27.83;;;23.02;;
59649;SDS011;46162;57.568;25.814;2023-09-12T02:04:54;31.55;;;24.98;;
59649;SDS011;46162;57.568;25.814;2023-09-12T02:07:36;30.73;;;23.20;;
59649;SDS011;46162;57.568;25.814;2023-09-12T02:10:07;30.20;;;22.15;;
59649;SDS011;46162;57.568;25.814;2023-09-12T02:12:38;26.10;;;22.10;;
59649;SDS011;46162;57.568;25.814;2023-09-12T02:15:08;26.13;;;20.50;;
59649;SDS011;46162;57.568;25.814;2023-09-12T02:17:37;31.67;;;22.00;;
59649;SDS011;46162;57.568;25.814;2023-09-12T02:20:07;27.05;;;20.80;;
59649;SDS011;46162;57.568;25.814;2023-09-12T02:22:36;26.92;;;19.20;;
59649;SDS011;46162;57.568;25.814;2023-09-12T02:25:05;26.48;;;19.05;;
59649;SDS011;46162;57.568;25.814;2023-09-12T02:27:35;21.43;;;17.73;;
59649;SDS011;46162;57.568;25.814;2023-09-12T02:30:06;24.77;;;18.77;;
59649;SDS011;46162;57.568;25.814;2023-09-12T02:32:36;30.88;;;17.67;;
59649;SDS011;46162;57.568;25.814;2023-09-12T02:35:05;25.02;;;19.52;;
59649;SDS011;46162;57.568;25.814;2023-09-12T02:37:33;26.95;;;19.50;;
59649;SDS011;46162;57.568;25.814;2023-09-12T02:40:02;22.10;;;18.55;;
59649;SDS011;46162;57.568;25.814;2023-09-12T02:42:33;23.20;;;19.48;;
59649;SDS011;46162;57.568;25.814;2023-09-12T02:45:02;24.38;;;19.45;;
59649;SDS011;46162;57.568;25.814;2023-09-12T02:47:33;25.70;;;19.67;;
59649;SDS011;46162;57.568;25.814;2023-09-12T02:50:01;25.67;;;18.17;;
59649;SDS011;46162;57.568;25.814;2023-09-12T02:52:31;25.73;;;19.98;;
59649;SDS011;46162;57.568;25.814;2023-09-12T02:54:59;24.67;;;20.05;;
59649;SDS011;46162;57.568;25.814;2023-09-12T02:57:28;29.83;;;20.63;;
59649;SDS011;46162;57.568;25.814;2023-09-12T02:59:57;22.20;;;17.38;;
59649;SDS011;46162;57.568;25.814;2023-09-12T03:02:26;23.95;;;17.30;;
59649;SDS011;46162;57.568;25.814;2023-09-12T03:04:57;23.27;;;18.05;;
59649;SDS011;46162;57.568;25.814;2023-09-12T03:07:26;23.27;;;17.38;;
59649;SDS011;46162;57.568;25.814;2023-09-12T03:09:55;22.20;;;17.42;;
59649;SDS011;46162;57.568;25.814;2023-09-12T03:12:24;25.80;;;18.92;;
59649;SDS011;46162;57.568;25.814;2023-09-12T03:14:53;25.83;;;19.10;;
59649;SDS011;46162;57.568;25.814;2023-09-12T03:17:22;28.98;;;20.05;;
59649;SDS011;46162;57.568;25.814;2023-09-12T03:19:51;25.50;;;20.75;;
59649;SDS011;46162;57.568;25.814;2023-09-12T03:22:21;27.10;;;20.67;;
59649;SDS011;46162;57.568;25.814;2023-09-12T03:24:52;29.08;;;20.60;;
59649;SDS011;46162;57.568;25.814;2023-09-12T03:27:22;28.42;;;21.38;;
59649;SDS011;46162;57.568;25.814;2023-09-12T03:29:51;28.20;;;22.17;;
59649;SDS011;46162;57.568;25.814;2023-09-12T03:32:20;29.30;;;21.33;;
59649;SDS011;46162;57.568;25.814;2023-09-12T03:34:49;28.90;;;21.67;;
59649;SDS011;46162;57.568;25.814;2023-09-12T03:37:18;29.00;;;23.15;;
59649;SDS011;46162;57.568;25.814;2023-09-12T03:39:48;29.38;;;24.48;;
59649;SDS011;46162;57.568;25.814;2023-09-12T03:42:16;29.98;;;23.58;;
59649;SDS011;46162;57.568;25.814;2023-09-12T03:44:45;28.08;;;22.35;;
59649;SDS011;46162;57.568;25.814;2023-09-12T03:47:14;31.10;;;23.52;;
59649;SDS011;46162;57.568;25.814;2023-09-12T03:49:42;30.58;;;25.23;;
59649;SDS011;46162;57.568;25.814;2023-09-12T03:52:11;28.15;;;23.05;;
59649;SDS011;46162;57.568;25.814;2023-09-12T03:54:40;31.73;;;21.63;;
59649;SDS011;46162;57.568;25.814;2023-09-12T03:57:10;32.38;;;23.17;;
59649;SDS011;46162;57.568;25.814;2023-09-12T03:59:39;28.63;;;20.00;;
59649;SDS011;46162;57.568;25.814;2023-09-12T04:02:08;29.75;;;22.17;;
59649;SDS011;46162;57.568;25.814;2023-09-12T04:04:37;30.75;;;23.17;;
59649;SDS011;46162;57.568;25.814;2023-09-12T04:07:05;31.73;;;22.40;;
59649;SDS011;46162;57.568;25.814;2023-09-12T04:09:34;26.83;;;22.05;;
59649;SDS011;46162;57.568;25.814;2023-09-12T04:12:03;27.60;;;21.50;;
59649;SDS011;46162;57.568;25.814;2023-09-12T04:14:35;30.48;;;21.35;;
59649;SDS011;46162;57.568;25.814;2023-09-12T04:17:04;30.88;;;21.33;;
59649;SDS011;46162;57.568;25.814;2023-09-12T04:19:38;27.35;;;21.30;;
59649;SDS011;46162;57.568;25.814;2023-09-12T04:22:07;26.90;;;21.25;;
59649;SDS011;46162;57.568;25.814;2023-09-12T04:24:35;28.83;;;20.67;;
59649;SDS011;46162;57.568;25.814;2023-09-12T04:27:04;25.95;;;20.58;;
59649;SDS011;46162;57.568;25.814;2023-09-12T04:29:35;26.30;;;21.65;;
59649;SDS011;46162;57.568;25.814;2023-09-12T04:32:04;31.90;;;20.85;;
59649;SDS011;46162;57.568;25.814;2023-09-12T04:34:33;27.10;;;19.40;;
59649;SDS011;46162;57.568;25.814;2023-09-12T04:37:02;27.55;;;18.75;;
59649;SDS011;46162;57.568;25.814;2023-09-12T04:39:33;20.42;;;17.67;;
59649;SDS011;46162;57.568;25.814;2023-09-12T04:42:02;22.85;;;17.73;;
59649;SDS011;46162;57.568;25.814;2023-09-12T04:44:35;27.52;;;19.63;;
59649;SDS011;46162;57.568;25.814;2023-09-12T04:47:04;29.70;;;19.02;;
59649;SDS011;46162;57.568;25.814;2023-09-12T04:49:34;27.75;;;18.48;;
59649;SDS011;46162;57.568;25.814;2023-09-12T04:52:03;27.33;;;18.48;;
59649;SDS011;46162;57.568;25.814;2023-09-12T04:54:32;28.98;;;17.20;;
59649;SDS011;46162;57.568;25.814;2023-09-12T04:57:01;24.95;;;17.17;;
59649;SDS011;46162;57.568;25.814;2023-09-12T04:59:29;23.75;;;18.60;;
59649;SDS011;46162;57.568;25.814;2023-09-12T05:01:59;30.00;;;18.73;;
59649;SDS011;46162;57.568;25.814;2023-09-12T05:04:29;20.50;;;15.77;;
59649;SDS011;46162;57.568;25.814;2023-09-12T05:06:59;21.38;;;16.08;;
59649;SDS011;46162;57.568;25.814;2023-09-12T05:09:28;23.48;;;16.10;;
59649;SDS011;46162;57.568;25.814;2023-09-12T05:11:57;22.65;;;15.55;;
59649;SDS011;46162;57.568;25.814;2023-09-12T05:14:26;23.50;;;16.23;;
59649;SDS011;46162;57.568;25.814;2023-09-12T05:16:55;27.30;;;16.95;;
59649;SDS011;46162;57.568;25.814;2023-09-12T05:19:25;25.58;;;17.05;;
59649;SDS011;46162;57.568;25.814;2023-09-12T05:21:53;23.60;;;15.63;;
59649;SDS011;46162;57.568;25.814;2023-09-12T05:24:22;20.58;;;16.77;;
59649;SDS011;46162;57.568;25.814;2023-09-12T05:26:51;25.73;;;16.02;;
59649;SDS011;46162;57.568;25.814;2023-09-12T05:29:20;23.75;;;15.88;;
59649;SDS011;46162;57.568;25.814;2023-09-12T05:31:48;22.98;;;15.43;;
59649;SDS011;46162;57.568;25.814;2023-09-12T05:34:17;26.90;;;16.65;;
59649;SDS011;46162;57.568;25.814;2023-09-12T05:36:47;27.00;;;16.40;;
59649;SDS011;46162;57.568;25.814;2023-09-12T05:39:16;22.15;;;13.90;;
59649;SDS011;46162;57.568;25.814;2023-09-12T05:41:46;23.08;;;15.73;;
59649;SDS011;46162;57.568;25.814;2023-09-12T05:44:14;25.35;;;15.30;;
59649;SDS011;46162;57.568;25.814;2023-09-12T05:46:45;23.77;;;15.05;;
59649;SDS011;46162;57.568;25.814;2023-09-12T05:49:14;21.70;;;14.85;;
59649;SDS011;46162;57.568;25.814;2023-09-12T05:51:43;23.55;;;15.30;;
59649;SDS011;46162;57.568;25.814;2023-09-12T05:54:13;29.83;;;15.50;;
59649;SDS011;46162;57.568;25.814;2023-09-12T05:56:42;21.33;;;12.85;;
59649;SDS011;46162;57.568;25.814;2023-09-12T05:59:11;23.70;;;13.52;;
59649;SDS011;46162;57.568;25.814;2023-09-12T06:01:39;17.48;;;13.65;;
59649;SDS011;46162;57.568;25.814;2023-09-12T06:04:08;20.52;;;13.98;;
59649;SDS011;46162;57.568;25.814;2023-09-12T06:06:37;21.08;;;13.70;;
59649;SDS011;46162;57.568;25.814;2023-09-12T06:09:06;20.65;;;12.55;;
59649;SDS011;46162;57.568;25.814;2023-09-12T06:11:37;25.58;;;13.70;;
59649;SDS011;46162;57.568;25.814;2023-09-12T06:14:06;23.02;;;14.95;;
59649;SDS011;46162;57.568;25.814;2023-09-12T06:16:34;18.80;;;11.85;;
59649;SDS011;46162;57.568;25.814;2023-09-12T06:19:03;20.13;;;12.60;;
59649;SDS011;46162;57.568;25.814;2023-09-12T06:21:32;21.08;;;12.15;;
59649;SDS011;46162;57.568;25.814;2023-09-12T06:24:13;18.90;;;11.93;;
59649;SDS011;46162;57.568;25.814;2023-09-12T06:26:44;25.20;;;12.80;;
59649;SDS011;46162;57.568;25.814;2023-09-12T06:29:13;19.95;;;11.75;;
59649;SDS011;46162;57.568;25.814;2023-09-12T06:31:43;14.20;;;10.38;;
59649;SDS011;46162;57.568;25.814;2023-09-12T06:34:11;17.92;;;10.75;;
59649;SDS011;46162;57.568;25.814;2023-09-12T06:36:40;20.10;;;10.70;;
59649;SDS011;46162;57.568;25.814;2023-09-12T06:39:12;17.50;;;10.15;;
59649;SDS011;46162;57.568;25.814;2023-09-12T06:41:40;17.88;;;9.73;;
59649;SDS011;46162;57.568;25.814;2023-09-12T06:44:11;20.15;;;9.13;;
59649;SDS011;46162;57.568;25.814;2023-09-12T06:46:42;12.93;;;8.98;;
59649;SDS011;46162;57.568;25.814;2023-09-12T06:49:11;15.20;;;8.50;;
59649;SDS011;46162;57.568;25.814;2023-09-12T06:51:39;18.92;;;9.43;;
59649;SDS011;46162;57.568;25.814;2023-09-12T06:54:08;23.52;;;10.15;;
59649;SDS011;46162;57.568;25.814;2023-09-12T06:56:37;17.95;;;9.23;;
59649;SDS011;46162;57.568;25.814;2023-09-12T06:59:08;15.70;;;8.80;;
59649;SDS011;46162;57.568;25.814;2023-09-12T07:01:40;21.30;;;8.93;;
59649;SDS011;46162;57.568;25.814;2023-09-12T07:04:10;16.80;;;8.63;;
59649;SDS011;46162;57.568;25.814;2023-09-12T07:06:39;16.95;;;8.45;;
59649;SDS011;46162;57.568;25.814;2023-09-12T07:09:09;17.67;;;8.25;;
59649;SDS011;46162;57.568;25.814;2023-09-12T07:11:41;20.20;;;8.52;;
59649;SDS011;46162;57.568;25.814;2023-09-12T07:14:10;22.35;;;9.13;;
59649;SDS011;46162;57.568;25.814;2023-09-12T07:16:39;15.63;;;7.35;;
59649;SDS011;46162;57.568;25.814;2023-09-12T07:19:09;17.88;;;7.88;;
59649;SDS011;46162;57.568;25.814;2023-09-12T07:21:38;16.77;;;7.57;;
59649;SDS011;46162;57.568;25.814;2023-09-12T07:24:06;20.25;;;8.60;;
59649;SDS011;46162;57.568;25.814;2023-09-12T07:26:35;17.80;;;8.57;;
59649;SDS011;46162;57.568;25.814;2023-09-12T07:29:04;13.52;;;7.32;;
59649;SDS011;46162;57.568;25.814;2023-09-12T07:31:34;18.70;;;8.55;;
59649;SDS011;46162;57.568;25.814;2023-09-12T07:34:04;13.85;;;7.50;;
59649;SDS011;46162;57.568;25.814;2023-09-12T07:36:34;15.57;;;7.00;;
59649;SDS011;46162;57.568;25.814;2023-09-12T07:39:03;16.13;;;7.35;;
59649;SDS011;46162;57.568;25.814;2023-09-12T07:41:33;19.50;;;8.75;;
59649;SDS011;46162;57.568;25.814;2023-09-12T07:44:02;16.70;;;8.55;;
59649;SDS011;46162;57.568;25.814;2023-09-12T07:46:31;18.85;;;7.75;;
59649;SDS011;46162;57.568;25.814;2023-09-12T07:49:00;15.30;;;7.88;;
59649;SDS011;46162;57.568;25.814;2023-09-12T07:51:30;17.58;;;7.57;;
59649;SDS011;46162;57.568;25.814;2023-09-12T07:53:59;18.20;;;7.57;;
59649;SDS011;46162;57.568;25.814;2023-09-12T07:56:27;17.20;;;7.07;;
59649;SDS011;46162;57.568;25.814;2023-09-12T07:58:57;21.02;;;7.13;;
59649;SDS011;46162;57.568;25.814;2023-09-12T08:01:25;19.08;;;7.00;;
59649;SDS011;46162;57.568;25.814;2023-09-12T08:03:55;16.33;;;7.03;;
59649;SDS011;46162;57.568;25.814;2023-09-12T08:06:24;12.43;;;6.47;;
59649;SDS011;46162;57.568;25.814;2023-09-12T08:08:54;17.05;;;6.28;;
59649;SDS011;46162;57.568;25.814;2023-09-12T08:11:23;13.93;;;5.65;;
59649;SDS011;46162;57.568;25.814;2023-09-12T08:13:53;16.40;;;5.40;;
59649;SDS011;46162;57.568;25.814;2023-09-12T08:16:24;16.35;;;5.43;;
59649;SDS011;46162;57.568;25.814;2023-09-12T08:18:53;15.55;;;4.90;;
59649;SDS011;46162;57.568;25.814;2023-09-12T08:21:21;12.88;;;5.18;;
59649;SDS011;46162;57.568;25.814;2023-09-12T08:23:50;13.13;;;4.78;;
59649;SDS011;46162;57.568;25.814;2023-09-12T08:26:20;19.33;;;4.82;;
59649;SDS011;46162;57.568;25.814;2023-09-12T08:28:49;11.93;;;5.45;;
59649;SDS011;46162;57.568;25.814;2023-09-12T08:31:18;16.27;;;4.38;;
59649;SDS011;46162;57.568;25.814;2023-09-12T08:33:47;15.35;;;4.78;;
59649;SDS011;46162;57.568;25.814;2023-09-12T08:36:16;8.88;;;4.20;;
59649;SDS011;46162;57.568;25.814;2023-09-12T08:38:47;18.05;;;4.45;;
59649;SDS011;46162;57.568;25.814;2023-09-12T08:41:15;14.25;;;4.47;;
59649;SDS011;46162;57.568;25.814;2023-09-12T08:43:46;9.30;;;4.00;;
59649;SDS011;46162;57.568;25.814;2023-09-12T08:46:16;14.57;;;4.70;;
59649;SDS011;46162;57.568;25.814;2023-09-12T08:48:46;17.55;;;5.20;;
59649;SDS011;46162;57.568;25.814;2023-09-12T08:51:17;21.73;;;4.88;;
59649;SDS011;46162;57.568;25.814;2023-09-12T08:53:46;13.88;;;4.32;;
59649;SDS011;46162;57.568;25.814;2023-09-12T08:56:15;13.25;;;4.43;;
59649;SDS011;46162;57.568;25.814;2023-09-12T08:58:45;9.95;;;4.47;;
59649;SDS011;46162;57.568;25.814;2023-09-12T09:01:15;16.85;;;4.32;;
59649;SDS011;46162;57.568;25.814;2023-09-12T09:03:46;11.15;;;4.43;;
59649;SDS011;46162;57.568;25.814;2023-09-12T09:06:16;16.20;;;4.77;;
59649;SDS011;46162;57.568;25.814;2023-09-12T09:08:46;17.58;;;4.60;;
59649;SDS011;46162;57.568;25.814;2023-09-12T09:11:16;22.13;;;4.50;;
59649;SDS011;46162;57.568;25.814;2023-09-12T09:13:46;15.88;;;4.25;;
59649;SDS011;46162;57.568;25.814;2023-09-12T09:16:15;18.13;;;4.35;;
59649;SDS011;46162;57.568;25.814;2023-09-12T09:18:49;14.15;;;3.72;;
59649;SDS011;46162;57.568;25.814;2023-09-12T09:21:22;19.10;;;4.05;;
59649;SDS011;46162;57.568;25.814;2023-09-12T09:26:22;14.35;;;3.92;;
59649;SDS011;46162;57.568;25.814;2023-09-12T09:29:05;11.30;;;3.45;;
59649;SDS011;46162;57.568;25.814;2023-09-12T09:31:39;13.88;;;3.13;;
59649;SDS011;46162;57.568;25.814;2023-09-12T09:34:12;10.95;;;3.03;;
59649;SDS011;46162;57.568;25.814;2023-09-12T09:36:43;10.50;;;3.53;;
59649;SDS011;46162;57.568;25.814;2023-09-12T09:39:15;11.02;;;3.40;;
59649;SDS011;46162;57.568;25.814;2023-09-12T09:41:46;11.57;;;2.83;;
59649;SDS011;46162;57.568;25.814;2023-09-12T09:44:17;14.45;;;3.58;;
59649;SDS011;46162;57.568;25.814;2023-09-12T09:46:50;15.75;;;2.97;;
59649;SDS011;46162;57.568;25.814;2023-09-12T09:49:20;16.42;;;4.25;;
59649;SDS011;46162;57.568;25.814;2023-09-12T09:51:49;14.45;;;2.92;;
59649;SDS011;46162;57.568;25.814;2023-09-12T09:54:18;14.40;;;3.65;;
59649;SDS011;46162;57.568;25.814;2023-09-12T09:56:47;13.27;;;2.78;;
59649;SDS011;46162;57.568;25.814;2023-09-12T09:59:20;17.13;;;3.08;;
59649;SDS011;46162;57.568;25.814;2023-09-12T10:01:50;17.55;;;3.38;;
59649;SDS011;46162;57.568;25.814;2023-09-12T10:04:23;15.15;;;3.20;;
59649;SDS011;46162;57.568;25.814;2023-09-12T10:06:56;13.43;;;3.13;;
59649;SDS011;46162;57.568;25.814;2023-09-12T10:09:26;20.58;;;3.33;;
59649;SDS011;46162;57.568;25.814;2023-09-12T10:11:56;18.65;;;3.33;;
59649;SDS011;46162;57.568;25.814;2023-09-12T10:14:27;12.40;;;3.20;;
59649;SDS011;46162;57.568;25.814;2023-09-12T10:17:00;18.05;;;3.28;;
59649;SDS011;46162;57.568;25.814;2023-09-12T10:19:37;13.05;;;3.10;;
59649;SDS011;46162;57.568;25.814;2023-09-12T10:22:12;16.27;;;3.72;;
59649;SDS011;46162;57.568;25.814;2023-09-12T10:24:46;20.15;;;3.60;;
59649;SDS011;46162;57.568;25.814;2023-09-12T10:27:18;17.20;;;3.10;;
59649;SDS011;46162;57.568;25.814;2023-09-12T10:32:20;21.02;;;3.78;;
59649;SDS011;46162;57.568;25.814;2023-09-12T10:34:50;22.38;;;3.70;;
59649;SDS011;46162;57.568;25.814;2023-09-12T10:37:21;17.13;;;3.42;;
59649;SDS011;46162;57.568;25.814;2023-09-12T10:39:53;12.85;;;3.30;;
59649;SDS011;46162;57.568;25.814;2023-09-12T10:42:22;16.05;;;3.20;;
59649;SDS011;46162;57.568;25.814;2023-09-12T10:44:53;12.75;;;3.22;;
59649;SDS011;46162;57.568;25.814;2023-09-12T10:47:23;14.63;;;3.75;;
59649;SDS011;46162;57.568;25.814;2023-09-12T10:49:52;22.92;;;3.70;;
59649;SDS011;46162;57.568;25.814;2023-09-12T10:52:24;19.77;;;3.40;;
59649;SDS011;46162;57.568;25.814;2023-09-12T10:54:54;14.98;;;3.90;;
59649;SDS011;46162;57.568;25.814;2023-09-12T10:57:23;14.48;;;3.83;;
59649;SDS011;46162;57.568;25.814;2023-09-12T11:00:13;10.85;;;3.08;;
59649;SDS011;46162;57.568;25.814;2023-09-12T11:02:42;16.52;;;3.47;;
59649;SDS011;46162;57.568;25.814;2023-09-12T11:08:05;21.27;;;4.07;;
59649;SDS011;46162;57.568;25.814;2023-09-12T11:10:34;15.00;;;4.25;;
59649;SDS011;46162;57.568;25.814;2023-09-12T11:13:03;18.65;;;4.05;;
59649;SDS011;46162;57.568;25.814;2023-09-12T11:15:34;19.75;;;4.03;;
59649;SDS011;46162;57.568;25.814;2023-09-12T11:18:06;14.10;;;3.30;;
59649;SDS011;46162;57.568;25.814;2023-09-12T11:20:51;14.15;;;4.07;;
59649;SDS011;46162;57.568;25.814;2023-09-12T11:23:21;23.23;;;4.43;;
59649;SDS011;46162;57.568;25.814;2023-09-12T11:26:02;16.42;;;3.70;;
59649;SDS011;46162;57.568;25.814;2023-09-12T11:28:33;13.65;;;3.50;;
59649;SDS011;46162;57.568;25.814;2023-09-12T11:31:03;16.25;;;3.97;;
59649;SDS011;46162;57.568;25.814;2023-09-12T11:33:33;14.27;;;4.15;;
59649;SDS011;46162;57.568;25.814;2023-09-12T11:36:02;21.05;;;4.05;;
59649;SDS011;46162;57.568;25.814;2023-09-12T11:38:37;12.07;;;4.10;;
59649;SDS011;46162;57.568;25.814;2023-09-12T11:41:06;13.75;;;3.70;;
59649;SDS011;46162;57.568;25.814;2023-09-12T11:43:35;13.70;;;3.33;;
59649;SDS011;46162;57.568;25.814;2023-09-12T11:46:08;21.00;;;4.35;;
59649;SDS011;46162;57.568;25.814;2023-09-12T11:48:37;13.38;;;4.00;;
59649;SDS011;46162;57.568;25.814;2023-09-12T11:51:07;15.48;;;3.83;;
59649;SDS011;46162;57.568;25.814;2023-09-12T11:53:36;15.27;;;3.88;;
59649;SDS011;46162;57.568;25.814;2023-09-12T11:56:05;16.13;;;3.88;;
59649;SDS011;46162;57.568;25.814;2023-09-12T11:58:34;18.15;;;3.92;;
59649;SDS011;46162;57.568;25.814;2023-09-12T12:01:03;17.25;;;4.55;;
59649;SDS011;46162;57.568;25.814;2023-09-12T12:03:33;13.13;;;4.25;;
59649;SDS011;46162;57.568;25.814;2023-09-12T12:08:33;12.55;;;4.53;;
59649;SDS011;46162;57.568;25.814;2023-09-12T12:11:03;22.45;;;4.97;;
59649;SDS011;46162;57.568;25.814;2023-09-12T12:13:32;19.88;;;4.70;;
59649;SDS011;46162;57.568;25.814;2023-09-12T12:16:07;22.15;;;4.72;;
59649;SDS011;46162;57.568;25.814;2023-09-12T12:18:44;24.23;;;4.50;;
59649;SDS011;46162;57.568;25.814;2023-09-12T12:21:14;30.00;;;4.88;;
59649;SDS011;46162;57.568;25.814;2023-09-12T12:23:42;20.35;;;4.32;;
59649;SDS011;46162;57.568;25.814;2023-09-12T12:26:11;11.60;;;3.75;;
59649;SDS011;46162;57.568;25.814;2023-09-12T12:28:40;15.10;;;4.22;;
59649;SDS011;46162;57.568;25.814;2023-09-12T12:31:09;19.77;;;4.05;;
59649;SDS011;46162;57.568;25.814;2023-09-12T12:33:38;19.30;;;4.13;;
59649;SDS011;46162;57.568;25.814;2023-09-12T12:36:29;15.50;;;4.15;;
59649;SDS011;46162;57.568;25.814;2023-09-12T12:39:02;15.55;;;4.25;;
59649;SDS011;46162;57.568;25.814;2023-09-12T12:41:31;21.98;;;4.07;;
59649;SDS011;46162;57.568;25.814;2023-09-12T12:44:17;17.13;;;4.82;;
59649;SDS011;46162;57.568;25.814;2023-09-12T12:46:49;17.85;;;4.72;;
59649;SDS011;46162;57.568;25.814;2023-09-12T12:49:19;13.18;;;4.25;;
59649;SDS011;46162;57.568;25.814;2023-09-12T12:51:52;14.88;;;4.15;;
59649;SDS011;46162;57.568;25.814;2023-09-12T12:54:23;16.02;;;4.55;;
59649;SDS011;46162;57.568;25.814;2023-09-12T12:56:51;15.73;;;4.25;;
59649;SDS011;46162;57.568;25.814;2023-09-12T12:59:21;16.92;;;4.95;;
59649;SDS011;46162;57.568;25.814;2023-09-12T13:01:50;16.77;;;4.18;;
59649;SDS011;46162;57.568;25.814;2023-09-12T13:04:19;12.90;;;4.28;;
59649;SDS011;46162;57.568;25.814;2023-09-12T13:06:48;11.73;;;4.43;;
59649;SDS011;46162;57.568;25.814;2023-09-12T13:09:18;16.10;;;4.60;;
59649;SDS011;46162;57.568;25.814;2023-09-12T13:14:15;12.90;;;4.38;;
59649;SDS011;46162;57.568;25.814;2023-09-12T13:16:46;16.65;;;4.85;;
59649;SDS011;46162;57.568;25.814;2023-09-12T13:19:14;13.35;;;4.35;;
59649;SDS011;46162;57.568;25.814;2023-09-12T13:21:43;11.18;;;4.55;;
59649;SDS011;46162;57.568;25.814;2023-09-12T13:24:11;10.95;;;4.22;;
59649;SDS011;46162;57.568;25.814;2023-09-12T13:26:42;11.95;;;4.70;;
59649;SDS011;46162;57.568;25.814;2023-09-12T13:29:12;16.02;;;4.47;;
59649;SDS011;46162;57.568;25.814;2023-09-12T13:31:40;17.00;;;4.60;;
59649;SDS011;46162;57.568;25.814;2023-09-12T13:34:09;17.17;;;4.80;;
59649;SDS011;46162;57.568;25.814;2023-09-12T13:36:38;14.00;;;4.18;;
59649;SDS011;46162;57.568;25.814;2023-09-12T13:39:07;9.98;;;4.43;;
59649;SDS011;46162;57.568;25.814;2023-09-12T13:41:36;16.02;;;5.00;;
59649;SDS011;46162;57.568;25.814;2023-09-12T13:44:07;16.65;;;4.55;;
59649;SDS011;46162;57.568;25.814;2023-09-12T13:46:37;18.40;;;5.20;;
59649;SDS011;46162;57.568;25.814;2023-09-12T13:49:06;21.50;;;4.95;;
59649;SDS011;46162;57.568;25.814;2023-09-12T13:51:35;16.08;;;4.78;;
59649;SDS011;46162;57.568;25.814;2023-09-12T13:54:03;18.90;;;4.78;;
59649;SDS011;46162;57.568;25.814;2023-09-12T13:56:33;17.02;;;4.60;;
59649;SDS011;46162;57.568;25.814;2023-09-12T13:59:03;11.80;;;5.00;;
59649;SDS011;46162;57.568;25.814;2023-09-12T14:01:34;19.70;;;5.70;;
59649;SDS011;46162;57.568;25.814;2023-09-12T14:04:03;22.45;;;5.35;;
59649;SDS011;46162;57.568;25.814;2023-09-12T14:06:33;17.13;;;4.45;;
59649;SDS011;46162;57.568;25.814;2023-09-12T14:09:03;25.85;;;5.07;;
59649;SDS011;46162;57.568;25.814;2023-09-12T14:11:32;19.95;;;5.22;;
59649;SDS011;46162;57.568;25.814;2023-09-12T14:16:36;15.23;;;5.93;;
59649;SDS011;46162;57.568;25.814;2023-09-12T14:19:05;16.63;;;5.05;;
59649;SDS011;46162;57.568;25.814;2023-09-12T14:21:35;19.13;;;4.68;;
59649;SDS011;46162;57.568;25.814;2023-09-12T14:24:05;15.45;;;5.13;;
59649;SDS011;46162;57.568;25.814;2023-09-12T14:26:34;20.27;;;4.93;;
59649;SDS011;46162;57.568;25.814;2023-09-12T14:29:04;14.18;;;5.57;;
59649;SDS011;46162;57.568;25.814;2023-09-12T14:31:36;14.82;;;5.57;;
59649;SDS011;46162;57.568;25.814;2023-09-12T14:34:05;18.50;;;5.28;;
59649;SDS011;46162;57.568;25.814;2023-09-12T14:36:35;16.60;;;4.93;;
59649;SDS011;46162;57.568;25.814;2023-09-12T14:39:04;17.60;;;5.38;;
59649;SDS011;46162;57.568;25.814;2023-09-12T14:41:33;17.80;;;5.53;;
59649;SDS011;46162;57.568;25.814;2023-09-12T14:44:02;12.88;;;4.82;;
59649;SDS011;46162;57.568;25.814;2023-09-12T14:46:32;17.58;;;5.15;;
59649;SDS011;46162;57.568;25.814;2023-09-12T14:49:02;18.95;;;5.57;;